createdAt,value
2023-03-07T00:01:31.395Z,99743.08
2023-03-07T00:04:01.502Z,99738.80
2023-03-07T00:06:31.547Z,99736.05
2023-03-07T00:09:02.609Z,99733.95
2023-03-07T00:11:32.288Z,99735.30
2023-03-07T00:14:02.561Z,99736.27
2023-03-07T00:16:32.619Z,99734.17
2023-03-07T00:19:02.503Z,99733.91
2023-03-07T00:21:32.316Z,99730.17
2023-03-07T00:24:02.047Z,99733.22
2023-03-07T00:26:31.948Z,99730.14
2023-03-07T00:29:01.565Z,99726.58
2023-03-07T00:31:31.442Z,99722.73
2023-03-07T00:34:01.110Z,99723.67
2023-03-07T00:36:31.370Z,99719.48
2023-03-07T00:39:01.003Z,99720.66
2023-03-07T00:41:31.065Z,99716.90
2023-03-07T00:44:01.339Z,99718.00
2023-03-07T00:46:30.982Z,99718.16
2023-03-07T00:49:01.582Z,99720.08
2023-03-07T00:51:31.352Z,99718.02
2023-03-07T00:54:01.613Z,99716.40
2023-03-07T00:56:31.436Z,99719.48
2023-03-07T00:59:01.032Z,99715.02
2023-03-07T01:01:30.744Z,99711.55
2023-03-07T01:04:01.539Z,99711.36
2023-03-07T01:06:33.671Z,99705.59
2023-03-07T01:09:06.789Z,99704.52
2023-03-07T01:11:37.415Z,99701.86
2023-03-07T01:14:10.116Z,99700.56
2023-03-07T01:16:40.225Z,99697.58
2023-03-07T01:19:12.463Z,99695.70
2023-03-07T01:21:44.411Z,99693.90
2023-03-07T01:24:16.455Z,99693.88
2023-03-07T01:26:46.707Z,99693.13
2023-03-07T01:29:16.328Z,99691.61
2023-03-07T01:31:45.984Z,99689.52
2023-03-07T01:34:15.980Z,99684.23
2023-03-07T01:36:45.797Z,99687.61
2023-03-07T01:39:16.892Z,99681.05
2023-03-07T01:42:07.338Z,99680.41
2023-03-07T01:45:01.736Z,99678.48
2023-03-07T01:47:43.610Z,99674.76
2023-03-07T01:50:16.643Z,99675.77
2023-03-07T01:52:49.798Z,99671.17
2023-03-07T01:55:23.559Z,99674.45
2023-03-07T01:58:00.447Z,99670.33
2023-03-07T02:00:30.371Z,99667.27
2023-03-07T02:03:09.244Z,99668.45
2023-03-07T02:05:43.859Z,99666.91
2023-03-07T02:08:16.473Z,99664.45
2023-03-07T02:10:47.466Z,99665.59
2023-03-07T02:13:17.399Z,99664.99
2023-03-07T02:15:49.735Z,99662.98
2023-03-07T02:18:24.407Z,99662.91
2023-03-07T02:20:59.834Z,99662.27
2023-03-07T02:23:37.559Z,99656.08
2023-03-07T02:26:13.776Z,99654.69
2023-03-07T02:28:45.329Z,99651.45
2023-03-07T02:31:15.170Z,99650.20
2023-03-07T02:33:45.366Z,99647.87
2023-03-07T02:36:19.579Z,99650.46
2023-03-07T02:39:15.532Z,99644.58
2023-03-07T02:41:46.042Z,99641.98
2023-03-07T02:44:22.129Z,99639.53
2023-03-07T02:46:51.839Z,99632.27
2023-03-07T02:49:22.283Z,99632.83
2023-03-07T02:51:57.624Z,99631.80
2023-03-07T02:54:28.534Z,99625.48
2023-03-07T02:56:58.448Z,99624.69
2023-03-07T02:59:28.745Z,99623.17
2023-03-07T03:01:58.926Z,99623.65
2023-03-07T03:04:28.696Z,99620.59
2023-03-07T03:06:59.344Z,99617.96
2023-03-07T03:09:28.989Z,99614.75
2023-03-07T03:11:58.696Z,99611.47
2023-03-07T03:14:29.619Z,99610.47
2023-03-07T03:17:00.229Z,99615.69
2023-03-07T03:19:31.614Z,99609.20
2023-03-07T03:22:01.207Z,99604.14
2023-03-07T03:24:32.659Z,99608.08
2023-03-07T03:27:02.590Z,99606.66
2023-03-07T03:29:32.299Z,99605.90
2023-03-07T03:32:03.859Z,99606.64
2023-03-07T03:34:34.560Z,99602.05
2023-03-07T03:37:04.316Z,99599.58
2023-03-07T03:39:34.800Z,99595.27
2023-03-07T03:42:05.674Z,99591.59
2023-03-07T03:44:36.486Z,99585.68
2023-03-07T03:47:06.484Z,99584.36
2023-03-07T03:49:37.544Z,99589.23
2023-03-07T03:52:07.701Z,99585.14
2023-03-07T03:54:38.409Z,99587.82
2023-03-07T03:57:08.725Z,99588.02
2023-03-07T03:59:38.309Z,99585.55
2023-03-07T04:02:08.055Z,99581.02
2023-03-07T04:04:38.778Z,99579.77
2023-03-07T04:07:08.387Z,99586.24
2023-03-07T04:09:38.070Z,99584.27
2023-03-07T04:12:09.454Z,99579.00
2023-03-07T04:14:39.022Z,99580.52
2023-03-07T04:17:08.704Z,99579.31
2023-03-07T04:19:38.336Z,99578.52
2023-03-07T04:22:11.363Z,99576.45
2023-03-07T04:24:42.525Z,99581.11
2023-03-07T04:27:12.298Z,99581.19
2023-03-07T04:29:42.548Z,99578.86
2023-03-07T04:32:19.863Z,99580.19
2023-03-07T04:34:50.960Z,99574.58
2023-03-07T04:37:21.519Z,99567.24
2023-03-07T04:39:51.135Z,99564.82
2023-03-07T04:42:20.800Z,99563.59
2023-03-07T04:44:50.458Z,99563.43
2023-03-07T04:47:20.818Z,99562.21
2023-03-07T04:49:52.128Z,99559.48
2023-03-07T04:52:22.518Z,99551.66
2023-03-07T04:54:52.707Z,99549.73
2023-03-07T04:57:23.100Z,99552.63
2023-03-07T04:59:52.734Z,99555.30
2023-03-07T05:02:24.462Z,99549.57
2023-03-07T05:04:55.721Z,99545.10
2023-03-07T05:07:26.660Z,99542.27
2023-03-07T05:09:56.310Z,99538.19
2023-03-07T05:12:26.833Z,99535.38
2023-03-07T05:14:57.393Z,99527.14
2023-03-07T05:17:27.384Z,99522.65
2023-03-07T05:19:57.117Z,99520.08
2023-03-07T05:22:27.807Z,99520.60
2023-03-07T05:24:58.493Z,99516.98
2023-03-07T05:27:28.750Z,99517.92
2023-03-07T05:29:59.389Z,99517.27
2023-03-07T05:32:30.070Z,99514.50
2023-03-07T05:35:00.838Z,99509.48
2023-03-07T05:37:30.486Z,99509.05
2023-03-07T05:40:00.412Z,99495.62
2023-03-07T05:42:30.045Z,99493.31
2023-03-07T05:44:59.700Z,99490.98
2023-03-07T05:47:29.867Z,99491.46
2023-03-07T05:49:59.711Z,99485.84
2023-03-07T05:52:29.484Z,99476.46
2023-03-07T05:54:59.184Z,99470.29
2023-03-07T05:57:28.934Z,99464.09
2023-03-07T05:59:59.626Z,99450.73
2023-03-07T06:02:29.495Z,99444.55
2023-03-07T06:04:59.870Z,99441.04
2023-03-07T06:07:29.433Z,99438.33
2023-03-07T06:09:59.230Z,99436.48
2023-03-07T06:12:29.605Z,99431.02
2023-03-07T06:14:59.250Z,99427.67
2023-03-07T06:17:29.658Z,99425.42
2023-03-07T06:19:59.696Z,99417.98
2023-03-07T06:22:31.766Z,99414.70
2023-03-07T06:25:01.400Z,99414.04
2023-03-07T06:27:33.990Z,99421.47
2023-03-07T06:30:05.752Z,99425.25
2023-03-07T06:32:35.627Z,99420.09
2023-03-07T06:35:08.298Z,99411.52
2023-03-07T06:37:38.029Z,99409.95
2023-03-07T06:40:10.912Z,99412.29
2023-03-07T06:42:41.162Z,99416.38
2023-03-07T06:45:11.963Z,99410.84
2023-03-07T06:47:41.881Z,99409.52
2023-03-07T06:50:12.734Z,99414.39
2023-03-07T06:52:42.664Z,99416.98
2023-03-07T06:55:12.802Z,99411.07
2023-03-07T06:57:42.447Z,99412.00
2023-03-07T07:00:15.027Z,99407.55
2023-03-07T07:02:44.865Z,99403.85
2023-03-07T07:05:14.926Z,99403.48
2023-03-07T07:07:44.620Z,99401.44
2023-03-07T07:10:15.128Z,99402.52
2023-03-07T07:12:44.731Z,99402.08
2023-03-07T07:15:15.121Z,99395.98
2023-03-07T07:17:44.702Z,99388.52
2023-03-07T07:20:16.041Z,99379.61
2023-03-07T07:22:45.682Z,99374.30
2023-03-07T07:25:16.708Z,99370.02
2023-03-07T07:27:46.384Z,99362.13
2023-03-07T07:30:16.927Z,99359.46
2023-03-07T07:32:47.658Z,99353.64
2023-03-07T07:35:17.558Z,99357.02
2023-03-07T07:37:47.416Z,99352.80
2023-03-07T07:40:17.318Z,99337.30
2023-03-07T07:42:53.872Z,99334.56
2023-03-07T07:45:30.143Z,99339.64
2023-03-07T07:48:00.196Z,99334.33
2023-03-07T07:50:30.916Z,99330.14
2023-03-07T07:53:00.562Z,99323.96
2023-03-07T07:55:30.146Z,99310.14
2023-03-07T07:57:59.778Z,99307.52
2023-03-07T08:00:29.628Z,99309.91
2023-03-07T08:03:00.472Z,99303.67
2023-03-07T08:05:30.880Z,99306.04
2023-03-07T08:08:00.583Z,99305.72
2023-03-07T08:10:31.536Z,99304.58
2023-03-07T08:13:01.396Z,99302.55
2023-03-07T08:15:31.228Z,99290.74
2023-03-07T08:18:00.844Z,99284.45
2023-03-07T08:20:30.522Z,99273.09
2023-03-07T08:23:00.176Z,99270.95
2023-03-07T08:25:29.761Z,99269.11
2023-03-07T08:28:02.621Z,99263.39
2023-03-07T08:30:34.282Z,99261.95
2023-03-07T08:33:04.179Z,99256.17
2023-03-07T08:35:33.999Z,99245.29
2023-03-07T08:38:03.636Z,99247.64
2023-03-07T08:40:33.382Z,99245.08
2023-03-07T08:43:03.549Z,99237.94
2023-03-07T08:45:33.093Z,99227.65
2023-03-07T08:48:03.110Z,99223.04
2023-03-07T08:50:32.718Z,99217.94
2023-03-07T08:53:03.249Z,99213.52
2023-03-07T08:55:36.237Z,99210.02
2023-03-07T08:58:05.826Z,99201.35
2023-03-07T09:00:35.454Z,99190.58
2023-03-07T09:03:05.857Z,99181.86
2023-03-07T09:05:38.741Z,99170.84
2023-03-07T09:08:08.646Z,99158.11
2023-03-07T09:10:38.265Z,99160.65
2023-03-07T09:13:07.840Z,99158.74
2023-03-07T09:15:39.971Z,99158.45
2023-03-07T09:18:09.837Z,99156.96
2023-03-07T09:20:40.323Z,99154.45
2023-03-07T09:23:10.414Z,99148.58
2023-03-07T09:25:40.010Z,99155.73
2023-03-07T09:28:09.849Z,99154.63
2023-03-07T09:30:39.485Z,99154.48
2023-03-07T09:33:09.094Z,99146.03
2023-03-07T09:35:40.049Z,99136.48
2023-03-07T09:38:10.113Z,99130.07
2023-03-07T09:40:39.933Z,99122.81
2023-03-07T09:43:18.855Z,99131.10
2023-03-07T09:46:07.060Z,99127.27
2023-03-07T09:48:56.915Z,99117.75
2023-03-07T09:51:36.049Z,99116.68
2023-03-07T09:54:10.862Z,99112.13
2023-03-07T09:56:46.323Z,99109.55
2023-03-07T09:59:23.458Z,99105.14
2023-03-07T10:02:01.515Z,99097.11
2023-03-07T10:04:38.633Z,99097.73
2023-03-07T10:07:13.060Z,99097.56
2023-03-07T10:09:43.973Z,99092.63
2023-03-07T10:12:36.183Z,99087.11
2023-03-07T10:15:27.314Z,99082.05
2023-03-07T10:18:21.339Z,99076.62
2023-03-07T10:20:56.991Z,99075.94
2023-03-07T10:23:42.069Z,99065.20
2023-03-07T10:26:17.031Z,99059.14
2023-03-07T10:28:48.804Z,99056.61
2023-03-07T10:31:24.228Z,99055.54
2023-03-07T10:33:54.870Z,99050.07
2023-03-07T10:36:37.433Z,99047.76
2023-03-07T10:39:21.841Z,99047.08
2023-03-07T10:41:51.612Z,99034.41
2023-03-07T10:44:22.406Z,99031.09
2023-03-07T10:46:58.376Z,99032.53
2023-03-07T10:49:31.753Z,99021.75
2023-03-07T10:52:04.661Z,99018.95
2023-03-07T10:54:37.147Z,99015.14
2023-03-07T10:57:09.944Z,99006.63
2023-03-07T10:59:43.013Z,99000.45
2023-03-07T11:02:35.333Z,98991.98
2023-03-07T11:05:26.856Z,98977.58
2023-03-07T11:07:56.450Z,98973.21
2023-03-07T11:10:33.116Z,98968.38
2023-03-07T11:13:14.030Z,98964.80
2023-03-07T11:15:44.632Z,98954.96
2023-03-07T11:18:29.281Z,98954.79
2023-03-07T11:20:59.890Z,98945.02
2023-03-07T11:23:31.065Z,98945.21
2023-03-07T11:26:16.572Z,98942.66
2023-03-07T11:28:46.204Z,98944.06
2023-03-07T11:31:24.196Z,98938.64
2023-03-07T11:34:00.557Z,98932.61
2023-03-07T11:36:33.285Z,98935.80
2023-03-07T11:39:11.120Z,98931.52
2023-03-07T11:41:42.667Z,98924.82
2023-03-07T11:44:29.632Z,98921.55
2023-03-07T11:47:18.193Z,98923.97
2023-03-07T11:50:04.972Z,98924.04
2023-03-07T11:52:52.941Z,98926.21
2023-03-07T11:55:35.554Z,98920.15
2023-03-07T11:58:33.414Z,98914.38
2023-03-07T12:01:13.065Z,98911.96
2023-03-07T12:04:21.375Z,98909.74
2023-03-07T12:06:59.089Z,98905.91
2023-03-07T12:09:42.246Z,98905.65
2023-03-07T12:12:29.426Z,98904.63
2023-03-07T12:15:07.929Z,98908.23
2023-03-07T12:17:48.473Z,98912.29
2023-03-07T12:20:37.895Z,98909.84
2023-03-07T12:23:15.521Z,98912.20
2023-03-07T12:25:49.607Z,98904.77
2023-03-07T12:28:26.954Z,98908.28
2023-03-07T12:31:11.434Z,98906.08
2023-03-07T12:33:59.594Z,98904.02
2023-03-07T12:36:35.898Z,98900.31
2023-03-07T12:39:14.418Z,98903.29
2023-03-07T12:41:57.865Z,98899.07
2023-03-07T12:44:41.757Z,98897.41
2023-03-07T12:47:19.896Z,98897.05
2023-03-07T12:49:59.317Z,98893.70
2023-03-07T12:52:40.299Z,98890.96
2023-03-07T12:55:22.113Z,98890.69
2023-03-07T12:57:59.273Z,98893.52
2023-03-07T13:00:29.405Z,98889.36
2023-03-07T13:03:03.693Z,98888.64
2023-03-07T13:05:35.963Z,98885.25
2023-03-07T13:08:08.042Z,98888.10
2023-03-07T13:10:38.165Z,98880.95
2023-03-07T13:13:45.043Z,98880.70
2023-03-07T13:16:33.895Z,98875.52
2023-03-07T13:19:42.194Z,98874.95
2023-03-07T13:22:45.988Z,98873.19
2023-03-07T13:25:55.172Z,98864.36
2023-03-07T13:28:42.893Z,98860.65
2023-03-07T13:31:27.660Z,98859.27
2023-03-07T13:34:17.652Z,98860.55
2023-03-07T13:36:47.270Z,98854.94
2023-03-07T13:39:58.310Z,98856.48
2023-03-07T13:42:48.225Z,98858.20
2023-03-07T13:45:50.041Z,98847.73
2023-03-07T13:49:00.047Z,98844.55
2023-03-07T13:51:30.119Z,98843.66
2023-03-07T13:54:04.605Z,98843.57
2023-03-07T13:56:40.394Z,98838.52
2023-03-07T13:59:23.971Z,98836.07
2023-03-07T14:01:57.854Z,98837.56
2023-03-07T14:04:39.857Z,98834.64
2023-03-07T14:07:20.792Z,98827.56
2023-03-07T14:09:53.787Z,98824.24
2023-03-07T14:12:35.893Z,98823.52
2023-03-07T14:15:20.744Z,98817.21
2023-03-07T14:18:04.171Z,98817.70
2023-03-07T14:20:50.344Z,98812.54
2023-03-07T14:23:40.318Z,98811.40
2023-03-07T14:26:16.158Z,98807.66
2023-03-07T14:28:51.705Z,98804.73
2023-03-07T14:31:26.870Z,98798.61
2023-03-07T14:33:56.799Z,98802.61
2023-03-07T14:36:29.289Z,98802.58
2023-03-07T14:39:02.011Z,98799.55
2023-03-07T14:41:41.726Z,98793.74
2023-03-07T14:44:36.939Z,98794.23
2023-03-07T14:47:22.428Z,98788.11
2023-03-07T14:50:00.365Z,98785.34
2023-03-07T14:52:31.685Z,98780.75
2023-03-07T14:55:04.127Z,98779.81
2023-03-07T14:57:37.869Z,98778.54
2023-03-07T15:00:15.045Z,98777.60
2023-03-07T15:02:49.259Z,98775.45
2023-03-07T15:05:21.550Z,98772.67
2023-03-07T15:07:51.128Z,98767.51
2023-03-07T15:10:23.570Z,98764.41
2023-03-07T15:12:55.946Z,98763.85
2023-03-07T15:15:30.214Z,98759.72
2023-03-07T15:18:04.032Z,98754.69
2023-03-07T15:20:34.554Z,98755.71
2023-03-07T15:23:07.662Z,98750.61
2023-03-07T15:25:38.730Z,98747.37
2023-03-07T15:28:18.270Z,98747.77
2023-03-07T15:30:53.225Z,98743.27
2023-03-07T15:33:26.871Z,98741.83
2023-03-07T15:36:24.628Z,98741.64
2023-03-07T15:39:15.073Z,98737.63
2023-03-07T15:42:00.412Z,98735.31
2023-03-07T15:44:30.051Z,98728.19
2023-03-07T15:47:04.752Z,98727.29
2023-03-07T15:49:42.187Z,98727.04
2023-03-07T15:52:24.976Z,98723.12
2023-03-07T15:54:57.360Z,98718.83
2023-03-07T15:57:30.687Z,98718.30
2023-03-07T16:00:03.114Z,98719.21
2023-03-07T16:02:46.379Z,98713.00
2023-03-07T16:05:37.640Z,98709.33
2023-03-07T16:08:15.536Z,98709.94
2023-03-07T16:10:52.343Z,98701.17
2023-03-07T16:13:26.077Z,98696.48
2023-03-07T16:16:14.596Z,98697.02
2023-03-07T16:18:44.743Z,98693.51
2023-03-07T16:21:15.488Z,98688.39
2023-03-07T16:23:46.233Z,98691.11
2023-03-07T16:26:18.366Z,98687.18
2023-03-07T16:28:48.006Z,98679.11
2023-03-07T16:31:18.813Z,98672.84
2023-03-07T16:33:48.855Z,98674.56
2023-03-07T16:36:18.658Z,98674.04
2023-03-07T16:38:48.530Z,98668.42
2023-03-07T16:41:19.939Z,98665.11
2023-03-07T16:43:54.229Z,98667.06
2023-03-07T16:46:25.094Z,98665.30
2023-03-07T16:48:54.739Z,98661.89
2023-03-07T16:51:27.694Z,98660.20
2023-03-07T16:53:59.145Z,98655.08
2023-03-07T16:56:32.625Z,98651.56
2023-03-07T16:59:02.932Z,98651.92
2023-03-07T17:01:32.763Z,98652.00
2023-03-07T17:04:02.587Z,98645.81
2023-03-07T17:06:39.095Z,98640.48
2023-03-07T17:09:10.742Z,98643.59
2023-03-07T17:11:43.950Z,98640.52
2023-03-07T17:14:15.087Z,98637.98
2023-03-07T17:16:49.211Z,98634.80
2023-03-07T17:19:26.400Z,98630.39
2023-03-07T17:21:57.884Z,98630.91
2023-03-07T17:24:28.414Z,98628.13
2023-03-07T17:27:00.499Z,98625.40
2023-03-07T17:29:35.766Z,98624.29
2023-03-07T17:32:06.364Z,98618.43
2023-03-07T17:34:37.725Z,98614.77
2023-03-07T17:37:07.775Z,98618.94
2023-03-07T17:39:38.291Z,98613.29
2023-03-07T17:42:08.498Z,98624.80
2023-03-07T17:44:38.822Z,98624.02
2023-03-07T17:47:08.769Z,98628.10
2023-03-07T17:49:39.214Z,98632.34
2023-03-07T17:52:09.139Z,98635.83
2023-03-07T17:54:39.628Z,98645.14
2023-03-07T17:57:09.181Z,98670.12
2023-03-07T17:59:39.672Z,98709.25
2023-03-07T18:02:12.961Z,98714.58
2023-03-07T18:04:42.768Z,98719.33
2023-03-07T18:07:12.429Z,98722.88
2023-03-07T18:09:42.036Z,98733.05
2023-03-07T18:12:11.771Z,98738.47
2023-03-07T18:14:41.414Z,98744.70
2023-03-07T18:17:11.000Z,98751.73
2023-03-07T18:19:40.606Z,98756.33
2023-03-07T18:22:10.581Z,98764.83
2023-03-07T18:24:40.159Z,98765.67
2023-03-07T18:27:10.583Z,98770.19
2023-03-07T18:29:40.126Z,98773.41
2023-03-07T18:32:12.187Z,98776.05
2023-03-07T18:34:41.775Z,98780.19
2023-03-07T18:37:11.684Z,98791.30
2023-03-07T18:39:41.312Z,98787.82
2023-03-07T18:42:11.703Z,98786.98
2023-03-07T18:44:41.913Z,98782.56
2023-03-07T18:47:11.554Z,98783.58
2023-03-07T18:49:41.357Z,98783.57
2023-03-07T18:52:10.934Z,98777.20
2023-03-07T18:54:41.816Z,98778.70
2023-03-07T18:57:11.519Z,98786.02
2023-03-07T18:59:41.372Z,98784.80
2023-03-07T19:02:11.785Z,98771.59
2023-03-07T19:04:41.426Z,98761.41
2023-03-07T19:07:10.969Z,98739.39
2023-03-07T19:09:41.464Z,98732.65
2023-03-07T19:12:11.748Z,98732.50
2023-03-07T19:14:41.743Z,98734.13
2023-03-07T19:17:11.686Z,98748.77
2023-03-07T19:19:41.412Z,98761.05
2023-03-07T19:22:12.035Z,98771.16
2023-03-07T19:24:43.972Z,98783.55
2023-03-07T19:27:13.552Z,98786.69
2023-03-07T19:29:43.098Z,98783.88
2023-03-07T19:32:13.520Z,98782.20
2023-03-07T19:34:43.160Z,98782.65
2023-03-07T19:37:12.698Z,98776.95
2023-03-07T19:39:42.630Z,98783.42
2023-03-07T19:42:12.278Z,98788.39
2023-03-07T19:44:42.086Z,98784.20
2023-03-07T19:47:11.700Z,98783.27
2023-03-07T19:49:41.334Z,98785.33
2023-03-07T19:52:11.126Z,98793.23
2023-03-07T19:54:40.680Z,98790.84
2023-03-07T19:57:14.230Z,98784.68
2023-03-07T19:59:43.979Z,98785.46
2023-03-07T20:02:14.139Z,98792.06
2023-03-07T20:04:43.826Z,98796.13
2023-03-07T20:07:13.735Z,98790.23
2023-03-07T20:09:44.385Z,98796.38
2023-03-07T20:12:14.206Z,98793.91
2023-03-07T20:14:44.043Z,98799.97
2023-03-07T20:17:14.201Z,98804.95
2023-03-07T20:19:44.023Z,98805.55
2023-03-07T20:22:13.766Z,98803.91
2023-03-07T20:24:44.231Z,98807.74
2023-03-07T20:27:19.693Z,98805.64
2023-03-07T20:29:49.771Z,98804.51
2023-03-07T20:32:19.794Z,98805.23
2023-03-07T20:34:52.775Z,98806.84
2023-03-07T20:37:22.501Z,98807.08
2023-03-07T20:39:52.228Z,98806.89
2023-03-07T20:42:21.848Z,98809.11
2023-03-07T20:44:51.456Z,98808.46
2023-03-07T20:47:21.297Z,98808.20
2023-03-07T20:49:50.903Z,98807.70
2023-03-07T20:52:22.969Z,98805.23
2023-03-07T20:54:52.567Z,98801.51
2023-03-07T20:57:22.225Z,98806.74
2023-03-07T20:59:51.863Z,98811.16
2023-03-07T21:02:21.380Z,98816.50
2023-03-07T21:04:51.518Z,98816.08
2023-03-07T21:07:21.093Z,98821.02
2023-03-07T21:09:51.371Z,98822.86
2023-03-07T21:12:21.068Z,98826.87
2023-03-07T21:14:50.634Z,98833.45
2023-03-07T21:17:20.246Z,98833.73
2023-03-07T21:19:49.919Z,98838.24
2023-03-07T21:22:19.468Z,98839.27
2023-03-07T21:24:49.089Z,98841.67
2023-03-07T21:27:18.694Z,98846.29
2023-03-07T21:29:48.276Z,98845.26
2023-03-07T21:32:17.945Z,98842.39
2023-03-07T21:34:47.578Z,98847.73
2023-03-07T21:37:17.260Z,98848.36
2023-03-07T21:39:46.874Z,98849.75
2023-03-07T21:42:16.442Z,98850.97
2023-03-07T21:44:45.970Z,98854.30
2023-03-07T21:47:16.776Z,98854.63
2023-03-07T21:49:46.460Z,98857.64
2023-03-07T21:52:16.118Z,98858.78
2023-03-07T21:54:45.743Z,98865.31
2023-03-07T21:57:15.371Z,98863.52
2023-03-07T21:59:45.064Z,98867.26
2023-03-07T22:02:14.721Z,98872.28
2023-03-07T22:04:44.274Z,98880.83
2023-03-07T22:07:13.926Z,98878.23
2023-03-07T22:09:43.559Z,98876.67
2023-03-07T22:12:13.194Z,98875.25
2023-03-07T22:14:42.814Z,98875.39
2023-03-07T22:17:12.322Z,98873.98
2023-03-07T22:19:41.893Z,98880.95
2023-03-07T22:22:11.519Z,98883.73
2023-03-07T22:24:41.278Z,98887.60
2023-03-07T22:27:10.971Z,98895.48
2023-03-07T22:29:40.564Z,98897.95
2023-03-07T22:32:10.520Z,98898.55
2023-03-07T22:34:40.181Z,98897.86
2023-03-07T22:37:09.724Z,98902.80
2023-03-07T22:39:39.325Z,98904.64
2023-03-07T22:42:09.452Z,98911.11
2023-03-07T22:44:39.257Z,98900.48
2023-03-07T22:47:08.957Z,98905.94
2023-03-07T22:49:38.535Z,98906.17
2023-03-07T22:52:08.384Z,98908.22
2023-03-07T22:54:40.480Z,98913.13
2023-03-07T22:57:10.083Z,98911.60
2023-03-07T22:59:39.903Z,98911.60
2023-03-07T23:02:09.483Z,98911.10
2023-03-07T23:04:39.220Z,98915.00
2023-03-07T23:07:08.932Z,98917.15
2023-03-07T23:09:38.554Z,98915.11
2023-03-07T23:12:09.427Z,98916.16
2023-03-07T23:14:39.144Z,98920.35
2023-03-07T23:17:08.770Z,98925.55
2023-03-07T23:19:38.389Z,98927.23
2023-03-07T23:22:08.054Z,98931.77
2023-03-07T23:24:37.934Z,98931.00
2023-03-07T23:27:08.073Z,98931.01
2023-03-07T23:29:37.657Z,98933.48
2023-03-07T23:32:08.658Z,98936.63
2023-03-07T23:34:38.232Z,98934.73
2023-03-07T23:37:07.908Z,98934.29
2023-03-07T23:39:37.831Z,98939.09
2023-03-07T23:42:09.397Z,98941.06
2023-03-07T23:44:40.090Z,98941.48
2023-03-07T23:47:10.129Z,98947.41
2023-03-07T23:49:39.717Z,98944.81
2023-03-07T23:52:09.558Z,98947.34
2023-03-07T23:54:41.415Z,98949.48
2023-03-07T23:57:11.524Z,98949.30
2023-03-07T23:59:41.132Z,98951.71
